Alpachiri, Argentina
Current Conditions -  °F | °C
As of 11:00 AM on Thursday 30 Oct 2014 (Local Time) from SANT Reporting Station
Scattered Clouds Scattered Clouds  
Wind Chill: 24°   Ceiling: Unl
Heat Index: 24°   Visibility: 5mi
Dew Point: 18°   Wind: 5mph
Humidity: 69%   Direction: 90°E
Pressure: 29.88"   Gusts: NA
Location:  27.33°S, 65.75°W
Report Text: SANT 301400Z 09004KT 8000 SCT030 SCT04024/18 Q1012
Loading
Personal Weather Stations






























Interactive Weather Map
Tropical Storm Tracking
New forecast layout! Learn more

10-Day Weather Forecast

Advertisements
Track Severe Weather on mobile